sensor_id;sensor_type;location;lat;lon;timestamp;P1;P2;P0
49343;PMS5003;35210;41.606;-87.602;2022-07-23T00:01:15;4.20;3.00;2.00
49343;PMS5003;35210;41.606;-87.602;2022-07-23T00:03:44;3.40;3.40;2.60
49343;PMS5003;35210;41.606;-87.602;2022-07-23T00:06:13;3.00;2.00;1.00
49343;PMS5003;35210;41.606;-87.602;2022-07-23T00:08:41;3.00;3.00;1.80
49343;PMS5003;35210;41.606;-87.602;2022-07-23T00:11:11;3.00;3.00;3.00
49343;PMS5003;35210;41.606;-87.602;2022-07-23T00:13:40;6.00;3.00;2.00
49343;PMS5003;35210;41.606;-87.602;2022-07-23T00:16:08;3.00;3.00;2.00
49343;PMS5003;35210;41.606;-87.602;2022-07-23T00:18:36;2.80;2.80;2.00
49343;PMS5003;35210;41.606;-87.602;2022-07-23T00:21:05;2.80;2.80;2.00
49343;PMS5003;35210;41.606;-87.602;2022-07-23T00:23:33;4.00;4.00;3.00
49343;PMS5003;35210;41.606;-87.602;2022-07-23T00:26:01;4.00;2.80;2.00
49343;PMS5003;35210;41.606;-87.602;2022-07-23T00:28:31;2.20;2.00;1.00
49343;PMS5003;35210;41.606;-87.602;2022-07-23T00:30:59;3.00;3.00;1.00
49343;PMS5003;35210;41.606;-87.602;2022-07-23T00:33:27;2.40;2.40;1.20
49343;PMS5003;35210;41.606;-87.602;2022-07-23T00:35:55;3.00;3.00;2.80
49343;PMS5003;35210;41.606;-87.602;2022-07-23T00:38:23;4.40;4.40;2.80
49343;PMS5003;35210;41.606;-87.602;2022-07-23T00:40:51;3.00;3.00;2.40
49343;PMS5003;35210;41.606;-87.602;2022-07-23T00:43:19;3.20;3.20;1.60
49343;PMS5003;35210;41.606;-87.602;2022-07-23T00:45:49;4.00;4.00;2.20
49343;PMS5003;35210;41.606;-87.602;2022-07-23T00:48:18;4.20;3.60;1.60
49343;PMS5003;35210;41.606;-87.602;2022-07-23T00:50:47;3.80;3.80;2.80
49343;PMS5003;35210;41.606;-87.602;2022-07-23T00:53:15;2.20;2.20;2.20
49343;PMS5003;35210;41.606;-87.602;2022-07-23T00:55:44;3.00;3.00;2.60
49343;PMS5003;35210;41.606;-87.602;2022-07-23T00:58:12;4.00;4.00;2.80
49343;PMS5003;35210;41.606;-87.602;2022-07-23T01:00:40;4.00;4.00;3.00
49343;PMS5003;35210;41.606;-87.602;2022-07-23T01:03:10;5.20;3.00;2.60
49343;PMS5003;35210;41.606;-87.602;2022-07-23T01:05:38;4.00;4.00;2.20
49343;PMS5003;35210;41.606;-87.602;2022-07-23T01:08:06;7.00;4.60;2.20
49343;PMS5003;35210;41.606;-87.602;2022-07-23T01:10:36;4.00;3.00;2.20
49343;PMS5003;35210;41.606;-87.602;2022-07-23T01:13:06;4.20;3.00;2.00
49343;PMS5003;35210;41.606;-87.602;2022-07-23T01:15:37;4.60;4.00;2.00
49343;PMS5003;35210;41.606;-87.602;2022-07-23T01:18:07;5.00;3.20;2.00
49343;PMS5003;35210;41.606;-87.602;2022-07-23T01:20:39;5.20;5.20;4.60
49343;PMS5003;35210;41.606;-87.602;2022-07-23T01:23:11;3.00;3.00;1.00
49343;PMS5003;35210;41.606;-87.602;2022-07-23T01:25:47;3.20;3.20;1.80
49343;PMS5003;35210;41.606;-87.602;2022-07-23T01:28:15;4.20;4.00;3.00
49343;PMS5003;35210;41.606;-87.602;2022-07-23T01:30:44;4.40;4.40;3.00
49343;PMS5003;35210;41.606;-87.602;2022-07-23T01:33:12;4.00;4.00;2.20
49343;PMS5003;35210;41.606;-87.602;2022-07-23T01:35:41;6.80;4.40;2.60
49343;PMS5003;35210;41.606;-87.602;2022-07-23T01:38:10;4.00;4.00;3.00
49343;PMS5003;35210;41.606;-87.602;2022-07-23T01:40:39;5.00;5.00;3.00
49343;PMS5003;35210;41.606;-87.602;2022-07-23T01:43:07;4.20;4.20;2.20
49343;PMS5003;35210;41.606;-87.602;2022-07-23T01:45:35;3.20;3.20;2.20
49343;PMS5003;35210;41.606;-87.602;2022-07-23T01:48:03;5.00;4.00;2.20
49343;PMS5003;35210;41.606;-87.602;2022-07-23T01:50:33;5.60;5.00;3.60
49343;PMS5003;35210;41.606;-87.602;2022-07-23T01:53:01;4.20;4.20;3.20
49343;PMS5003;35210;41.606;-87.602;2022-07-23T01:55:31;4.00;4.00;3.60
49343;PMS5003;35210;41.606;-87.602;2022-07-23T01:57:59;4.00;4.00;2.00
49343;PMS5003;35210;41.606;-87.602;2022-07-23T02:00:28;5.60;4.80;3.40
49343;PMS5003;35210;41.606;-87.602;2022-07-23T02:02:56;5.80;5.00;3.00
49343;PMS5003;35210;41.606;-87.602;2022-07-23T02:05:25;4.40;4.20;3.20
49343;PMS5003;35210;41.606;-87.602;2022-07-23T02:07:55;5.60;5.00;3.40
49343;PMS5003;35210;41.606;-87.602;2022-07-23T02:10:24;3.20;2.40;0.80
49343;PMS5003;35210;41.606;-87.602;2022-07-23T02:12:54;4.60;4.60;3.00
49343;PMS5003;35210;41.606;-87.602;2022-07-23T02:15:22;5.80;5.80;4.00
49343;PMS5003;35210;41.606;-87.602;2022-07-23T02:17:50;4.00;4.00;2.80
49343;PMS5003;35210;41.606;-87.602;2022-07-23T02:20:19;5.00;5.00;3.00
49343;PMS5003;35210;41.606;-87.602;2022-07-23T02:22:47;6.60;4.40;3.40
49343;PMS5003;35210;41.606;-87.602;2022-07-23T02:25:15;8.40;5.80;4.20
49343;PMS5003;35210;41.606;-87.602;2022-07-23T02:27:43;7.40;6.00;3.80
49343;PMS5003;35210;41.606;-87.602;2022-07-23T02:30:13;7.00;7.00;4.00
49343;PMS5003;35210;41.606;-87.602;2022-07-23T02:32:41;5.00;5.00;4.00
49343;PMS5003;35210;41.606;-87.602;2022-07-23T02:35:09;4.00;4.00;2.00
49343;PMS5003;35210;41.606;-87.602;2022-07-23T02:37:37;6.40;5.60;3.60
49343;PMS5003;35210;41.606;-87.602;2022-07-23T02:40:06;5.80;5.80;4.40
49343;PMS5003;35210;41.606;-87.602;2022-07-23T02:42:35;3.00;3.00;1.00
49343;PMS5003;35210;41.606;-87.602;2022-07-23T02:45:03;5.60;5.60;3.80
49343;PMS5003;35210;41.606;-87.602;2022-07-23T02:47:34;5.00;5.00;3.00
49343;PMS5003;35210;41.606;-87.602;2022-07-23T02:50:02;7.00;5.40;4.00
49343;PMS5003;35210;41.606;-87.602;2022-07-23T02:52:30;5.40;5.40;4.20
49343;PMS5003;35210;41.606;-87.602;2022-07-23T02:54:58;6.80;5.00;3.00
49343;PMS5003;35210;41.606;-87.602;2022-07-23T02:57:26;6.60;6.00;4.00
49343;PMS5003;35210;41.606;-87.602;2022-07-23T02:59:55;6.20;6.20;4.40
49343;PMS5003;35210;41.606;-87.602;2022-07-23T03:02:23;6.80;5.40;4.00
49343;PMS5003;35210;41.606;-87.602;2022-07-23T03:04:52;6.60;6.20;4.00
49343;PMS5003;35210;41.606;-87.602;2022-07-23T03:07:20;6.60;5.00;4.00
49343;PMS5003;35210;41.606;-87.602;2022-07-23T03:09:49;7.40;5.40;4.00
49343;PMS5003;35210;41.606;-87.602;2022-07-23T03:12:17;6.40;4.60;3.40
49343;PMS5003;35210;41.606;-87.602;2022-07-23T03:14:45;7.00;7.00;4.60
49343;PMS5003;35210;41.606;-87.602;2022-07-23T03:17:13;6.00;6.00;3.40
49343;PMS5003;35210;41.606;-87.602;2022-07-23T03:19:41;7.00;6.00;4.00
49343;PMS5003;35210;41.606;-87.602;2022-07-23T03:22:10;6.80;6.80;3.80
49343;PMS5003;35210;41.606;-87.602;2022-07-23T03:24:38;7.00;6.00;4.80
49343;PMS5003;35210;41.606;-87.602;2022-07-23T03:27:22;6.60;5.80;4.20
49343;PMS5003;35210;41.606;-87.602;2022-07-23T03:29:52;5.60;5.60;3.00
49343;PMS5003;35210;41.606;-87.602;2022-07-23T03:32:21;5.80;5.80;4.00
49343;PMS5003;35210;41.606;-87.602;2022-07-23T03:34:50;4.60;4.60;4.00
49343;PMS5003;35210;41.606;-87.602;2022-07-23T03:37:20;5.20;5.20;3.20
49343;PMS5003;35210;41.606;-87.602;2022-07-23T03:39:48;4.80;4.80;3.80
49343;PMS5003;35210;41.606;-87.602;2022-07-23T03:42:16;8.20;5.60;4.00
49343;PMS5003;35210;41.606;-87.602;2022-07-23T03:44:45;3.80;3.80;3.80
49343;PMS5003;35210;41.606;-87.602;2022-07-23T03:47:13;7.80;7.60;4.40
49343;PMS5003;35210;41.606;-87.602;2022-07-23T03:49:42;6.00;6.00;4.00
49343;PMS5003;35210;41.606;-87.602;2022-07-23T03:52:11;6.80;5.00;2.60
49343;PMS5003;35210;41.606;-87.602;2022-07-23T03:54:40;5.80;5.80;4.40
49343;PMS5003;35210;41.606;-87.602;2022-07-23T03:57:08;6.80;5.80;4.00
49343;PMS5003;35210;41.606;-87.602;2022-07-23T03:59:37;6.80;5.60;4.20
49343;PMS5003;35210;41.606;-87.602;2022-07-23T04:02:05;7.40;7.00;5.00
49343;PMS5003;35210;41.606;-87.602;2022-07-23T04:04:34;6.20;6.20;3.60
49343;PMS5003;35210;41.606;-87.602;2022-07-23T04:07:03;7.20;7.20;4.80
49343;PMS5003;35210;41.606;-87.602;2022-07-23T04:09:32;6.80;6.60;5.00
49343;PMS5003;35210;41.606;-87.602;2022-07-23T04:12:02;9.80;6.80;5.60
49343;PMS5003;35210;41.606;-87.602;2022-07-23T04:14:31;7.00;6.00;4.00
49343;PMS5003;35210;41.606;-87.602;2022-07-23T04:16:59;7.80;6.40;4.60
49343;PMS5003;35210;41.606;-87.602;2022-07-23T04:19:28;7.20;7.20;5.00
49343;PMS5003;35210;41.606;-87.602;2022-07-23T04:21:57;9.20;7.60;5.00
49343;PMS5003;35210;41.606;-87.602;2022-07-23T04:24:26;6.40;6.00;5.00
49343;PMS5003;35210;41.606;-87.602;2022-07-23T04:26:55;6.20;6.20;4.20
49343;PMS5003;35210;41.606;-87.602;2022-07-23T04:29:24;6.00;6.00;4.40
49343;PMS5003;35210;41.606;-87.602;2022-07-23T04:31:53;6.80;6.00;3.80
49343;PMS5003;35210;41.606;-87.602;2022-07-23T04:34:21;7.80;6.00;4.00
49343;PMS5003;35210;41.606;-87.602;2022-07-23T04:36:51;7.20;5.80;4.00
49343;PMS5003;35210;41.606;-87.602;2022-07-23T04:39:19;7.60;6.40;5.00
49343;PMS5003;35210;41.606;-87.602;2022-07-23T04:41:47;7.60;5.00;3.20
49343;PMS5003;35210;41.606;-87.602;2022-07-23T04:44:16;5.00;5.00;4.00
49343;PMS5003;35210;41.606;-87.602;2022-07-23T04:46:45;5.00;5.00;3.00
49343;PMS5003;35210;41.606;-87.602;2022-07-23T04:49:13;6.80;5.60;3.40
49343;PMS5003;35210;41.606;-87.602;2022-07-23T04:51:41;4.60;4.60;3.00
49343;PMS5003;35210;41.606;-87.602;2022-07-23T04:54:09;7.00;6.00;4.00
49343;PMS5003;35210;41.606;-87.602;2022-07-23T04:56:37;5.40;5.40;4.20
49343;PMS5003;35210;41.606;-87.602;2022-07-23T04:59:05;4.80;4.80;4.00
49343;PMS5003;35210;41.606;-87.602;2022-07-23T05:01:33;3.00;3.00;2.00
49343;PMS5003;35210;41.606;-87.602;2022-07-23T05:04:03;5.80;4.60;3.40
49343;PMS5003;35210;41.606;-87.602;2022-07-23T05:06:32;4.20;4.20;2.40
49343;PMS5003;35210;41.606;-87.602;2022-07-23T05:09:00;5.00;5.00;3.00
49343;PMS5003;35210;41.606;-87.602;2022-07-23T05:11:28;4.40;3.80;2.20
49343;PMS5003;35210;41.606;-87.602;2022-07-23T05:13:56;5.20;5.20;4.00
49343;PMS5003;35210;41.606;-87.602;2022-07-23T05:16:24;5.00;5.00;3.40
49343;PMS5003;35210;41.606;-87.602;2022-07-23T05:18:52;6.00;5.00;3.40
49343;PMS5003;35210;41.606;-87.602;2022-07-23T05:21:22;7.60;5.40;3.60
49343;PMS5003;35210;41.606;-87.602;2022-07-23T05:23:51;5.20;4.60;3.00
49343;PMS5003;35210;41.606;-87.602;2022-07-23T05:26:19;5.60;5.60;3.40
49343;PMS5003;35210;41.606;-87.602;2022-07-23T05:28:47;5.00;5.00;3.00
49343;PMS5003;35210;41.606;-87.602;2022-07-23T05:31:15;6.20;5.00;3.00
49343;PMS5003;35210;41.606;-87.602;2022-07-23T05:33:44;5.00;5.00;3.00
49343;PMS5003;35210;41.606;-87.602;2022-07-23T05:36:13;5.20;5.20;3.00
49343;PMS5003;35210;41.606;-87.602;2022-07-23T05:38:43;4.80;4.80;3.60
49343;PMS5003;35210;41.606;-87.602;2022-07-23T05:41:11;6.80;5.00;4.00
49343;PMS5003;35210;41.606;-87.602;2022-07-23T05:43:39;5.80;5.80;3.40
49343;PMS5003;35210;41.606;-87.602;2022-07-23T05:46:07;6.00;6.00;4.00
49343;PMS5003;35210;41.606;-87.602;2022-07-23T05:48:35;5.40;4.80;3.00
49343;PMS5003;35210;41.606;-87.602;2022-07-23T05:51:03;4.40;4.40;4.00
49343;PMS5003;35210;41.606;-87.602;2022-07-23T05:53:32;5.00;5.00;3.00
49343;PMS5003;35210;41.606;-87.602;2022-07-23T05:56:01;5.80;5.60;3.20
49343;PMS5003;35210;41.606;-87.602;2022-07-23T05:58:30;5.00;5.00;3.20
49343;PMS5003;35210;41.606;-87.602;2022-07-23T06:00:58;9.60;6.60;4.00
49343;PMS5003;35210;41.606;-87.602;2022-07-23T06:03:26;5.40;4.00;3.00
49343;PMS5003;35210;41.606;-87.602;2022-07-23T06:05:54;6.40;6.00;4.00
49343;PMS5003;35210;41.606;-87.602;2022-07-23T06:08:22;3.40;3.40;2.40
49343;PMS5003;35210;41.606;-87.602;2022-07-23T06:10:50;6.40;5.60;3.80
49343;PMS5003;35210;41.606;-87.602;2022-07-23T06:13:20;5.80;4.20;3.00
49343;PMS5003;35210;41.606;-87.602;2022-07-23T06:15:48;6.60;5.60;4.00
49343;PMS5003;35210;41.606;-87.602;2022-07-23T06:18:16;5.20;5.00;2.40
49343;PMS5003;35210;41.606;-87.602;2022-07-23T06:20:44;6.20;6.00;3.20
49343;PMS5003;35210;41.606;-87.602;2022-07-23T06:23:12;7.60;7.20;5.20
49343;PMS5003;35210;41.606;-87.602;2022-07-23T06:25:40;8.40;7.20;4.00
49343;PMS5003;35210;41.606;-87.602;2022-07-23T06:28:08;8.60;7.20;4.20
49343;PMS5003;35210;41.606;-87.602;2022-07-23T06:30:38;8.20;6.00;4.00
49343;PMS5003;35210;41.606;-87.602;2022-07-23T06:33:06;6.00;6.00;4.00
49343;PMS5003;35210;41.606;-87.602;2022-07-23T06:35:35;7.00;7.00;4.40
49343;PMS5003;35210;41.606;-87.602;2022-07-23T06:38:03;7.40;7.00;5.00
49343;PMS5003;35210;41.606;-87.602;2022-07-23T06:40:31;6.80;6.00;5.00
49343;PMS5003;35210;41.606;-87.602;2022-07-23T06:42:59;5.80;4.00;3.00
49343;PMS5003;35210;41.606;-87.602;2022-07-23T06:45:28;7.80;7.20;4.80
49343;PMS5003;35210;41.606;-87.602;2022-07-23T06:47:57;8.00;7.60;5.80
49343;PMS5003;35210;41.606;-87.602;2022-07-23T06:50:27;7.60;7.60;5.80
49343;PMS5003;35210;41.606;-87.602;2022-07-23T06:52:56;9.20;9.20;6.00
49343;PMS5003;35210;41.606;-87.602;2022-07-23T06:55:25;7.00;6.00;4.80
49343;PMS5003;35210;41.606;-87.602;2022-07-23T06:57:53;7.40;7.40;5.20
49343;PMS5003;35210;41.606;-87.602;2022-07-23T07:00:22;6.20;6.20;4.00
49343;PMS5003;35210;41.606;-87.602;2022-07-23T07:02:53;8.00;6.60;5.00
49343;PMS5003;35210;41.606;-87.602;2022-07-23T07:05:23;7.00;7.00;5.60
49343;PMS5003;35210;41.606;-87.602;2022-07-23T07:07:53;8.20;8.00;5.40
49343;PMS5003;35210;41.606;-87.602;2022-07-23T07:10:21;7.00;7.00;5.00
49343;PMS5003;35210;41.606;-87.602;2022-07-23T07:12:49;11.00;9.20;6.60
49343;PMS5003;35210;41.606;-87.602;2022-07-23T07:15:17;9.60;8.60;5.20
49343;PMS5003;35210;41.606;-87.602;2022-07-23T07:17:45;9.00;8.60;5.60
49343;PMS5003;35210;41.606;-87.602;2022-07-23T07:20:14;10.00;7.80;5.20
49343;PMS5003;35210;41.606;-87.602;2022-07-23T07:22:43;9.80;9.80;6.00
49343;PMS5003;35210;41.606;-87.602;2022-07-23T07:25:12;11.40;9.40;7.00
49343;PMS5003;35210;41.606;-87.602;2022-07-23T07:27:40;9.40;8.80;5.40
49343;PMS5003;35210;41.606;-87.602;2022-07-23T07:30:09;9.40;9.40;6.80
49343;PMS5003;35210;41.606;-87.602;2022-07-23T07:32:38;10.80;9.60;6.80
49343;PMS5003;35210;41.606;-87.602;2022-07-23T07:35:07;8.20;8.00;5.80
49343;PMS5003;35210;41.606;-87.602;2022-07-23T07:37:36;8.20;7.20;5.20
49343;PMS5003;35210;41.606;-87.602;2022-07-23T07:40:06;7.40;7.40;5.80
49343;PMS5003;35210;41.606;-87.602;2022-07-23T07:42:40;11.00;10.80;8.00
49343;PMS5003;35210;41.606;-87.602;2022-07-23T07:45:11;10.00;10.00;7.00
49343;PMS5003;35210;41.606;-87.602;2022-07-23T07:47:40;12.40;11.00;7.00
49343;PMS5003;35210;41.606;-87.602;2022-07-23T07:50:09;12.00;11.80;7.20
49343;PMS5003;35210;41.606;-87.602;2022-07-23T07:52:37;13.20;12.00;8.80
49343;PMS5003;35210;41.606;-87.602;2022-07-23T07:55:07;11.00;11.00;7.60
49343;PMS5003;35210;41.606;-87.602;2022-07-23T07:57:36;9.40;9.40;7.20
49343;PMS5003;35210;41.606;-87.602;2022-07-23T08:00:06;9.40;9.40;6.00
49343;PMS5003;35210;41.606;-87.602;2022-07-23T08:02:39;11.80;11.80;8.00
49343;PMS5003;35210;41.606;-87.602;2022-07-23T08:05:11;12.40;12.40;8.00
49343;PMS5003;35210;41.606;-87.602;2022-07-23T08:07:40;11.00;9.00;8.00
49343;PMS5003;35210;41.606;-87.602;2022-07-23T08:10:10;10.40;10.00;7.00
49343;PMS5003;35210;41.606;-87.602;2022-07-23T08:12:39;13.20;9.80;7.60
49343;PMS5003;35210;41.606;-87.602;2022-07-23T08:15:11;13.00;12.00;9.00
49343;PMS5003;35210;41.606;-87.602;2022-07-23T08:17:40;13.20;13.20;8.00
49343;PMS5003;35210;41.606;-87.602;2022-07-23T08:20:09;16.60;14.80;9.80
49343;PMS5003;35210;41.606;-87.602;2022-07-23T08:22:41;12.00;10.20;7.00
49343;PMS5003;35210;41.606;-87.602;2022-07-23T08:25:15;13.60;13.60;9.60
49343;PMS5003;35210;41.606;-87.602;2022-07-23T08:27:46;12.60;12.20;8.60
49343;PMS5003;35210;41.606;-87.602;2022-07-23T08:30:15;16.40;15.40;10.60
49343;PMS5003;35210;41.606;-87.602;2022-07-23T08:32:50;18.40;18.00;12.00
49343;PMS5003;35210;41.606;-87.602;2022-07-23T08:35:23;19.40;18.40;12.20
49343;PMS5003;35210;41.606;-87.602;2022-07-23T08:37:53;21.20;18.20;11.20
49343;PMS5003;35210;41.606;-87.602;2022-07-23T08:40:24;18.80;18.80;12.40
49343;PMS5003;35210;41.606;-87.602;2022-07-23T08:42:53;21.60;18.40;12.00
49343;PMS5003;35210;41.606;-87.602;2022-07-23T08:45:23;21.80;18.80;11.60
49343;PMS5003;35210;41.606;-87.602;2022-07-23T08:47:53;21.20;21.20;11.40
49343;PMS5003;35210;41.606;-87.602;2022-07-23T08:50:24;19.40;18.40;10.60
49343;PMS5003;35210;41.606;-87.602;2022-07-23T08:52:52;18.60;18.00;11.60
49343;PMS5003;35210;41.606;-87.602;2022-07-23T08:55:25;19.00;17.80;12.20
49343;PMS5003;35210;41.606;-87.602;2022-07-23T08:57:53;19.60;16.40;12.80
49343;PMS5003;35210;41.606;-87.602;2022-07-23T09:00:22;22.60;20.20;13.00
49343;PMS5003;35210;41.606;-87.602;2022-07-23T09:02:50;21.40;20.60;13.00
49343;PMS5003;35210;41.606;-87.602;2022-07-23T09:05:19;24.20;21.60;14.60
49343;PMS5003;35210;41.606;-87.602;2022-07-23T09:08:07;20.80;19.80;13.00
49343;PMS5003;35210;41.606;-87.602;2022-07-23T09:10:44;18.80;18.80;11.00
49343;PMS5003;35210;41.606;-87.602;2022-07-23T09:13:28;25.00;22.60;15.20
49343;PMS5003;35210;41.606;-87.602;2022-07-23T09:16:04;27.40;24.80;15.00
49343;PMS5003;35210;41.606;-87.602;2022-07-23T09:18:35;19.80;19.80;12.20
49343;PMS5003;35210;41.606;-87.602;2022-07-23T09:21:06;19.80;18.80;11.60
49343;PMS5003;35210;41.606;-87.602;2022-07-23T09:23:39;21.60;21.60;15.20
49343;PMS5003;35210;41.606;-87.602;2022-07-23T09:26:21;22.80;18.80;13.80
49343;PMS5003;35210;41.606;-87.602;2022-07-23T09:28:55;23.60;21.80;14.00
49343;PMS5003;35210;41.606;-87.602;2022-07-23T09:31:30;28.60;23.40;16.00
49343;PMS5003;35210;41.606;-87.602;2022-07-23T09:34:06;19.00;18.60;10.80
49343;PMS5003;35210;41.606;-87.602;2022-07-23T09:36:38;11.00;10.60;6.20
49343;PMS5003;35210;41.606;-87.602;2022-07-23T09:39:10;6.20;6.00;3.00
49343;PMS5003;35210;41.606;-87.602;2022-07-23T09:41:46;6.40;5.60;4.00
49343;PMS5003;35210;41.606;-87.602;2022-07-23T09:44:18;7.00;6.00;4.60
49343;PMS5003;35210;41.606;-87.602;2022-07-23T09:46:47;5.00;5.00;4.00
49343;PMS5003;35210;41.606;-87.602;2022-07-23T09:49:20;6.40;5.60;4.20
49343;PMS5003;35210;41.606;-87.602;2022-07-23T09:51:50;5.80;4.00;3.00
49343;PMS5003;35210;41.606;-87.602;2022-07-23T09:54:30;3.60;3.60;1.60
49343;PMS5003;35210;41.606;-87.602;2022-07-23T09:57:02;4.80;4.80;3.00
49343;PMS5003;35210;41.606;-87.602;2022-07-23T09:59:33;5.20;4.00;3.00
49343;PMS5003;35210;41.606;-87.602;2022-07-23T10:02:03;8.00;6.40;4.60
49343;PMS5003;35210;41.606;-87.602;2022-07-23T10:04:32;9.00;6.80;5.00
49343;PMS5003;35210;41.606;-87.602;2022-07-23T10:07:03;7.00;7.00;5.00
49343;PMS5003;35210;41.606;-87.602;2022-07-23T10:09:34;7.80;7.40;5.00
49343;PMS5003;35210;41.606;-87.602;2022-07-23T10:12:06;10.20;6.80;4.20
49343;PMS5003;35210;41.606;-87.602;2022-07-23T10:14:42;7.80;6.00;5.00
49343;PMS5003;35210;41.606;-87.602;2022-07-23T10:17:10;10.40;7.00;5.00
49343;PMS5003;35210;41.606;-87.602;2022-07-23T10:19:39;8.60;5.20;3.00
49343;PMS5003;35210;41.606;-87.602;2022-07-23T10:22:08;6.40;6.40;4.00
49343;PMS5003;35210;41.606;-87.602;2022-07-23T10:24:42;7.60;5.00;3.00
49343;PMS5003;35210;41.606;-87.602;2022-07-23T10:30:31;8.60;6.00;4.40
49343;PMS5003;35210;41.606;-87.602;2022-07-23T10:33:23;6.20;5.00;4.00
49343;PMS5003;35210;41.606;-87.602;2022-07-23T10:36:00;7.00;6.20;4.20
49343;PMS5003;35210;41.606;-87.602;2022-07-23T10:38:35;7.80;6.00;4.00
49343;PMS5003;35210;41.606;-87.602;2022-07-23T10:41:08;5.00;5.00;4.20
49343;PMS5003;35210;41.606;-87.602;2022-07-23T10:43:38;7.40;6.00;4.40
49343;PMS5003;35210;41.606;-87.602;2022-07-23T10:46:23;8.60;7.00;5.80
49343;PMS5003;35210;41.606;-87.602;2022-07-23T10:54:53;7.00;5.20;4.00
49343;PMS5003;35210;41.606;-87.602;2022-07-23T10:57:23;7.00;7.00;4.00
49343;PMS5003;35210;41.606;-87.602;2022-07-23T11:02:50;6.40;6.40;4.20
49343;PMS5003;35210;41.606;-87.602;2022-07-23T11:05:19;9.60;8.40;4.20
49343;PMS5003;35210;41.606;-87.602;2022-07-23T11:10:44;12.60;10.80;6.00
49343;PMS5003;35210;41.606;-87.602;2022-07-23T11:13:27;9.80;8.20;5.00
49343;PMS5003;35210;41.606;-87.602;2022-07-23T11:16:06;8.00;5.80;4.00
49343;PMS5003;35210;41.606;-87.602;2022-07-23T11:18:59;5.80;4.20;3.00
49343;PMS5003;35210;41.606;-87.602;2022-07-23T11:21:41;5.20;5.20;3.00
49343;PMS5003;35210;41.606;-87.602;2022-07-23T11:24:20;4.00;2.00;1.00
49343;PMS5003;35210;41.606;-87.602;2022-07-23T11:26:50;6.40;5.00;3.00
49343;PMS5003;35210;41.606;-87.602;2022-07-23T11:29:43;3.00;3.00;1.80
49343;PMS5003;35210;41.606;-87.602;2022-07-23T11:32:22;4.60;3.00;2.00
49343;PMS5003;35210;41.606;-87.602;2022-07-23T11:35:00;2.40;2.00;1.00
49343;PMS5003;35210;41.606;-87.602;2022-07-23T11:37:31;4.20;4.20;2.00
49343;PMS5003;35210;41.606;-87.602;2022-07-23T11:40:03;4.20;3.00;1.60
49343;PMS5003;35210;41.606;-87.602;2022-07-23T11:42:34;3.40;2.20;1.00
49343;PMS5003;35210;41.606;-87.602;2022-07-23T11:45:06;4.00;1.80;0.60
49343;PMS5003;35210;41.606;-87.602;2022-07-23T11:47:35;2.00;2.00;1.00
49343;PMS5003;35210;41.606;-87.602;2022-07-23T11:50:06;2.00;2.00;1.20
49343;PMS5003;35210;41.606;-87.602;2022-07-23T11:52:35;2.00;2.00;1.60
49343;PMS5003;35210;41.606;-87.602;2022-07-23T11:55:04;3.00;3.00;2.00
49343;PMS5003;35210;41.606;-87.602;2022-07-23T11:57:34;4.00;4.00;2.00
49343;PMS5003;35210;41.606;-87.602;2022-07-23T12:00:05;3.80;2.80;2.00
49343;PMS5003;35210;41.606;-87.602;2022-07-23T12:02:37;5.60;4.60;3.00
49343;PMS5003;35210;41.606;-87.602;2022-07-23T12:05:09;5.00;5.00;4.00
49343;PMS5003;35210;41.606;-87.602;2022-07-23T12:07:40;4.80;4.80;3.20
49343;PMS5003;35210;41.606;-87.602;2022-07-23T12:10:11;5.80;3.80;2.00
49343;PMS5003;35210;41.606;-87.602;2022-07-23T12:12:43;6.60;4.00;3.00
49343;PMS5003;35210;41.606;-87.602;2022-07-23T12:15:15;5.80;5.00;2.40
49343;PMS5003;35210;41.606;-87.602;2022-07-23T12:17:46;4.00;4.00;1.80
49343;PMS5003;35210;41.606;-87.602;2022-07-23T12:20:16;4.60;4.60;3.00
49343;PMS5003;35210;41.606;-87.602;2022-07-23T12:22:47;5.20;4.00;2.00
49343;PMS5003;35210;41.606;-87.602;2022-07-23T12:25:17;4.60;4.60;3.00
49343;PMS5003;35210;41.606;-87.602;2022-07-23T12:27:57;6.00;6.00;3.80
49343;PMS5003;35210;41.606;-87.602;2022-07-23T12:30:27;7.20;5.00;2.00
49343;PMS5003;35210;41.606;-87.602;2022-07-23T12:32:58;3.00;3.00;2.20
49343;PMS5003;35210;41.606;-87.602;2022-07-23T12:35:31;4.80;3.20;1.00
49343;PMS5003;35210;41.606;-87.602;2022-07-23T12:38:03;5.00;5.00;3.00
49343;PMS5003;35210;41.606;-87.602;2022-07-23T12:40:33;5.20;4.00;3.00
49343;PMS5003;35210;41.606;-87.602;2022-07-23T12:43:04;2.20;2.00;1.00
49343;PMS5003;35210;41.606;-87.602;2022-07-23T12:45:44;3.40;3.00;2.20
49343;PMS5003;35210;41.606;-87.602;2022-07-23T12:48:19;4.80;4.80;3.00
49343;PMS5003;35210;41.606;-87.602;2022-07-23T12:50:51;4.80;4.80;2.20
49343;PMS5003;35210;41.606;-87.602;2022-07-23T12:53:24;5.20;4.20;3.00
49343;PMS5003;35210;41.606;-87.602;2022-07-23T12:55:59;4.60;4.60;3.00
49343;PMS5003;35210;41.606;-87.602;2022-07-23T12:58:39;5.60;5.60;4.00
49343;PMS5003;35210;41.606;-87.602;2022-07-23T13:01:08;6.00;6.00;4.00
49343;PMS5003;35210;41.606;-87.602;2022-07-23T13:03:38;6.00;6.00;3.00
49343;PMS5003;35210;41.606;-87.602;2022-07-23T13:06:09;5.00;4.80;3.80
49343;PMS5003;35210;41.606;-87.602;2022-07-23T13:08:38;5.00;5.00;2.00
49343;PMS5003;35210;41.606;-87.602;2022-07-23T13:11:07;8.60;7.00;3.80
49343;PMS5003;35210;41.606;-87.602;2022-07-23T13:13:35;5.00;4.00;4.00
49343;PMS5003;35210;41.606;-87.602;2022-07-23T13:16:03;6.00;6.00;3.00
49343;PMS5003;35210;41.606;-87.602;2022-07-23T13:18:32;8.80;6.80;3.80
49343;PMS5003;35210;41.606;-87.602;2022-07-23T13:21:00;6.60;6.60;4.00
49343;PMS5003;35210;41.606;-87.602;2022-07-23T13:23:30;7.00;5.20;3.00
49343;PMS5003;35210;41.606;-87.602;2022-07-23T13:25:58;5.60;4.60;2.40
49343;PMS5003;35210;41.606;-87.602;2022-07-23T13:28:26;7.80;6.00;3.60
49343;PMS5003;35210;41.606;-87.602;2022-07-23T13:30:55;4.40;4.00;3.00
49343;PMS5003;35210;41.606;-87.602;2022-07-23T13:33:23;5.80;4.60;3.00
49343;PMS5003;35210;41.606;-87.602;2022-07-23T13:35:53;4.20;4.20;4.00
49343;PMS5003;35210;41.606;-87.602;2022-07-23T13:38:21;6.60;5.00;3.60
49343;PMS5003;35210;41.606;-87.602;2022-07-23T13:40:51;5.00;3.00;0.80
49343;PMS5003;35210;41.606;-87.602;2022-07-23T13:43:20;7.60;4.40;2.00
49343;PMS5003;35210;41.606;-87.602;2022-07-23T13:45:50;5.00;3.00;2.00
49343;PMS5003;35210;41.606;-87.602;2022-07-23T13:48:20;4.00;3.20;2.00
49343;PMS5003;35210;41.606;-87.602;2022-07-23T13:50:49;3.80;3.80;2.00
49343;PMS5003;35210;41.606;-87.602;2022-07-23T13:53:20;3.40;3.00;1.00
49343;PMS5003;35210;41.606;-87.602;2022-07-23T13:55:52;4.00;4.00;2.00
49343;PMS5003;35210;41.606;-87.602;2022-07-23T13:58:21;3.80;3.80;2.40
49343;PMS5003;35210;41.606;-87.602;2022-07-23T14:00:51;5.80;4.00;2.40
49343;PMS5003;35210;41.606;-87.602;2022-07-23T14:03:20;3.40;3.40;2.00
49343;PMS5003;35210;41.606;-87.602;2022-07-23T14:05:49;4.00;3.00;2.00
49343;PMS5003;35210;41.606;-87.602;2022-07-23T14:08:18;4.60;3.00;2.00
49343;PMS5003;35210;41.606;-87.602;2022-07-23T14:10:46;3.40;3.40;2.00
49343;PMS5003;35210;41.606;-87.602;2022-07-23T14:13:16;3.40;3.40;2.00
49343;PMS5003;35210;41.606;-87.602;2022-07-23T14:15:44;1.00;0.60;0.40
49343;PMS5003;35210;41.606;-87.602;2022-07-23T14:18:12;3.00;2.00;1.00
49343;PMS5003;35210;41.606;-87.602;2022-07-23T14:20:40;3.00;3.00;2.00
49343;PMS5003;35210;41.606;-87.602;2022-07-23T14:23:08;4.40;3.60;2.40
49343;PMS5003;35210;41.606;-87.602;2022-07-23T14:25:37;3.00;2.00;0.00